Time;durP1;ratioP1;P1;durP2;ratioP2;P2;SDS_P1;SDS_P2;PMS_P1;PMS_P2;Temp;Humidity;BMP_temperature;BMP_pressure;BME280_temperature;BME280_humidity;BME280_pressure;Samples;Min_cycle;Max_cycle;Signal;HPM_P1;HPM_P2
2021/04/20 00:01:39;;;;;;;4.05;3.75;;;7.90;99.90;;;;;;5076330;28;20202;-92
2021/04/20 00:04:06;;;;;;;3.20;3.00;;;7.90;99.90;;;;;;5073888;28;20198;-91
2021/04/20 00:06:33;;;;;;;4.10;3.80;;;7.90;99.90;;;;;;5077040;28;20214;-91
2021/04/20 00:09:00;;;;;;;4.15;3.85;;;7.90;99.90;;;;;;5075343;28;20211;-93
2021/04/20 00:11:26;;;;;;;3.72;3.42;;;7.90;99.90;;;;;;5076257;28;20205;-92
2021/04/20 00:13:54;;;;;;;4.15;3.85;;;7.80;99.90;;;;;;5075579;28;20305;-93
2021/04/20 00:16:21;;;;;;;4.47;4.13;;;7.80;99.90;;;;;;5085146;28;20188;-92
2021/04/20 00:18:47;;;;;;;4.68;4.28;;;7.80;99.90;;;;;;5088440;28;20650;-93
2021/04/20 00:21:14;;;;;;;3.92;3.63;;;7.80;99.90;;;;;;5076380;28;20213;-92
2021/04/20 00:23:41;;;;;;;4.53;4.22;;;7.80;99.90;;;;;;5088869;28;20593;-93
2021/04/20 00:26:07;;;;;;;4.60;4.20;;;7.70;99.90;;;;;;5075823;28;20194;-92
2021/04/20 00:28:34;;;;;;;4.05;3.75;;;7.70;99.90;;;;;;5074848;28;20236;-92
2021/04/20 00:31:02;;;;;;;3.88;3.58;;;7.70;99.90;;;;;;5075862;28;20280;-93
2021/04/20 00:33:29;;;;;;;3.58;3.38;;;7.60;99.90;;;;;;5064565;28;20227;-92
2021/04/20 00:35:55;;;;;;;4.65;4.22;;;7.50;99.90;;;;;;5065605;28;20229;-92
2021/04/20 00:38:22;;;;;;;4.35;3.95;;;7.40;99.90;;;;;;5068556;28;20227;-92
2021/04/20 00:40:49;;;;;;;4.25;3.85;;;7.30;99.90;;;;;;5057162;28;20191;-92
2021/04/20 00:43:16;;;;;;;4.25;3.85;;;7.30;99.90;;;;;;5057632;28;20223;-91
2021/04/20 00:45:43;;;;;;;3.92;3.63;;;7.20;99.90;;;;;;5058970;28;20220;-91
2021/04/20 00:48:11;;;;;;;4.00;3.70;;;7.30;99.90;;;;;;5058353;28;20277;-92
2021/04/20 00:50:40;;;;;;;3.80;3.50;;;7.40;99.90;;;;;;5059234;28;20236;-92
2021/04/20 00:53:08;;;;;;;3.72;3.53;;;7.50;99.90;;;;;;5069683;28;20228;-92
2021/04/20 00:55:35;;;;;;;3.78;3.47;;;7.50;99.90;;;;;;5078554;28;20594;-92
2021/04/20 00:58:02;;;;;;;4.00;3.70;;;7.50;99.90;;;;;;5080433;28;20289;-92
2021/04/20 01:00:31;;;;;;;3.80;3.55;;;7.50;99.90;;;;;;5081643;28;20640;-90
2021/04/20 01:02:58;;;;;;;3.60;3.40;;;7.50;99.90;;;;;;5090639;28;20241;-92
2021/04/20 01:05:30;;;;;;;3.58;3.38;;;7.60;99.90;;;;;;5078508;28;20198;-92
2021/04/20 01:07:59;;;;;;;3.88;3.67;;;7.60;99.90;;;;;;5076193;28;20225;-91
2021/04/20 01:10:27;;;;;;;3.60;3.40;;;7.60;99.90;;;;;;5077783;28;20236;-92
2021/04/20 01:12:55;;;;;;;3.58;3.35;;;7.50;99.90;;;;;;5077700;28;20232;-92
2021/04/20 01:18:44;;;;;;;3.95;3.65;;;7.40;99.90;;;;;;5080870;28;20263;-92
2021/04/20 01:21:14;;;;;;;3.63;3.40;;;7.50;99.90;;;;;;5079436;28;20248;-92
2021/04/20 01:27:06;;;;;;;3.88;3.58;;;7.40;99.90;;;;;;5094469;28;20229;-92
2021/04/20 01:29:32;;;;;;;3.88;3.65;;;7.40;99.90;;;;;;5079029;28;20265;-92
2021/04/20 01:31:59;;;;;;;4.05;3.75;;;7.50;99.90;;;;;;5077095;28;20198;-92
2021/04/20 01:34:26;;;;;;;3.50;3.20;;;7.50;99.90;;;;;;5077465;28;20292;-92
2021/04/20 01:36:53;;;;;;;3.83;3.55;;;7.50;99.90;;;;;;5076644;28;20206;-92
2021/04/20 01:39:20;;;;;;;3.90;3.60;;;7.40;99.90;;;;;;5077912;28;20213;-92
2021/04/20 01:41:47;;;;;;;3.58;3.38;;;7.30;99.90;;;;;;5077704;28;20201;-92
2021/04/20 01:44:15;;;;;;;3.70;3.50;;;7.30;99.90;;;;;;5078991;28;20274;-92
2021/04/20 01:46:42;;;;;;;3.65;3.35;;;7.30;99.90;;;;;;5095822;28;20234;-91
2021/04/20 01:49:09;;;;;;;3.90;3.60;;;7.30;99.90;;;;;;5076021;28;20225;-92
2021/04/20 01:51:36;;;;;;;4.18;3.88;;;7.20;99.90;;;;;;5075943;28;20194;-91
2021/04/20 01:54:03;;;;;;;3.58;3.38;;;7.20;99.90;;;;;;5075923;28;20218;-92
2021/04/20 01:56:31;;;;;;;3.38;3.17;;;7.10;99.90;;;;;;5076860;28;20251;-92
2021/04/20 01:58:59;;;;;;;4.00;3.70;;;7.10;99.90;;;;;;5076745;28;20217;-91
2021/04/20 02:02:00;;;;;;;3.60;3.30;;;7.10;99.90;;;;;;5086323;28;20232;-91
2021/04/20 02:04:35;;;;;;;3.53;3.33;;;7.10;99.90;;;;;;5089058;28;20668;-92
2021/04/20 02:07:02;;;;;;;3.85;3.60;;;7.00;99.90;;;;;;5079783;28;20221;-91
2021/04/20 02:09:29;;;;;;;3.53;3.28;;;7.00;99.90;;;;;;5083666;28;20222;-91
2021/04/20 02:32:58;;;;;;;4.13;3.83;;;7.00;99.90;;;;;;5005578;28;20225;-92
2021/04/20 03:13:54;;;;;;;3.55;3.35;;;6.80;99.90;;;;;;5058517;28;20203;-92
2021/04/20 04:00:30;;;;;;;3.85;3.55;;;6.60;99.90;;;;;;5114381;22;20308;-70
2021/04/20 04:02:57;;;;;;;4.10;3.80;;;6.50;99.90;;;;;;5090708;28;20228;-69
2021/04/20 04:05:28;;;;;;;3.60;3.40;;;6.50;99.90;;;;;;5089740;28;20225;-70
2021/04/20 04:07:57;;;;;;;3.38;3.15;;;6.50;99.90;;;;;;5087392;28;20220;-69
2021/04/20 04:10:25;;;;;;;3.70;3.50;;;6.50;99.90;;;;;;5084478;27;20221;-70
2021/04/20 04:12:54;;;;;;;4.03;3.72;;;6.50;99.90;;;;;;5091965;28;20555;-70
2021/04/20 04:15:22;;;;;;;3.20;3.00;;;6.50;99.90;;;;;;5087997;27;20222;-69
2021/04/20 04:17:51;;;;;;;3.47;3.28;;;6.50;99.90;;;;;;5084851;28;20189;-70
2021/04/20 04:20:19;;;;;;;3.42;3.22;;;6.50;99.90;;;;;;5092176;27;20305;-70
2021/04/20 04:22:54;;;;;;;3.60;3.35;;;6.60;99.90;;;;;;5092288;28;20216;-69
2021/04/20 04:25:26;;;;;;;3.25;3.05;;;6.50;99.90;;;;;;5087887;27;20229;-69
2021/04/20 04:27:54;;;;;;;3.33;3.13;;;6.60;99.90;;;;;;5086160;28;20733;-70
2021/04/20 04:30:23;;;;;;;3.50;3.30;;;6.50;99.90;;;;;;5090148;28;20258;-70
2021/04/20 04:32:53;;;;;;;3.50;3.20;;;6.50;99.90;;;;;;5083862;28;20198;-70
2021/04/20 04:35:21;;;;;;;3.67;3.47;;;6.50;99.90;;;;;;5091609;27;20744;-69
2021/04/20 04:37:48;;;;;;;3.47;3.28;;;6.50;99.90;;;;;;5089966;28;20186;-69
2021/04/20 04:40:17;;;;;;;3.80;3.50;;;6.50;99.90;;;;;;5078937;28;20229;-69
2021/04/20 04:42:44;;;;;;;3.42;3.22;;;6.60;99.90;;;;;;5067227;28;20199;-69
2021/04/20 04:45:12;;;;;;;3.17;2.97;;;6.60;99.90;;;;;;5062181;28;20222;-70
2021/04/20 04:47:39;;;;;;;3.50;3.30;;;6.70;99.90;;;;;;5066613;28;20700;-69
2021/04/20 04:50:09;;;;;;;3.45;3.25;;;6.70;99.90;;;;;;5066334;28;20225;-70
2021/04/20 04:52:36;;;;;;;3.60;3.40;;;6.70;99.90;;;;;;5065367;28;20230;-70
2021/04/20 04:55:03;;;;;;;2.70;2.60;;;6.70;99.90;;;;;;5062251;28;20230;-70
2021/04/20 04:57:31;;;;;;;3.38;3.17;;;6.70;99.90;;;;;;5066903;28;20225;-70
2021/04/20 05:00:02;;;;;;;4.78;3.65;;;6.70;99.90;;;;;;5068102;28;20233;-71
2021/04/20 05:02:29;;;;;;;3.33;3.00;;;6.70;99.90;;;;;;5064234;28;20630;-70
2021/04/20 05:04:56;;;;;;;3.70;3.40;;;6.80;99.90;;;;;;5063828;28;20218;-70
2021/04/20 05:07:24;;;;;;;3.67;3.45;;;6.80;99.90;;;;;;5062362;28;20241;-70
2021/04/20 05:09:51;;;;;;;3.10;2.90;;;6.90;99.90;;;;;;5061189;28;20218;-69
2021/04/20 05:12:20;;;;;;;3.70;3.50;;;7.00;99.90;;;;;;5061890;28;20228;-69
2021/04/20 05:14:47;;;;;;;3.22;3.03;;;7.00;99.90;;;;;;5063316;28;20281;-69
2021/04/20 05:17:14;;;;;;;3.25;3.05;;;7.10;99.90;;;;;;5065078;28;20190;-69
2021/04/20 05:19:42;;;;;;;4.22;3.92;;;7.20;99.90;;;;;;5059055;28;20548;-69
2021/04/20 05:22:11;;;;;;;3.17;2.97;;;7.20;99.90;;;;;;5064567;28;20214;-69
2021/04/20 05:24:39;;;;;;;5.10;3.42;;;7.30;99.90;;;;;;5060722;28;20218;-70
2021/04/20 05:27:06;;;;;;;3.55;3.30;;;7.40;99.90;;;;;;5062521;28;20225;-70
2021/04/20 05:29:33;;;;;;;3.55;3.25;;;7.50;99.90;;;;;;5062007;28;20281;-70
2021/04/20 05:32:00;;;;;;;3.42;3.22;;;7.60;99.90;;;;;;5063922;28;20292;-70
2021/04/20 05:34:27;;;;;;;3.55;3.25;;;7.70;99.90;;;;;;5064753;28;20588;-69
2021/04/20 05:36:54;;;;;;;3.40;3.20;;;7.70;99.90;;;;;;5063597;28;20198;-71
2021/04/20 05:39:20;;;;;;;3.72;3.42;;;7.90;99.90;;;;;;5059212;28;20226;-71
2021/04/20 05:41:48;;;;;;;3.20;3.00;;;7.90;99.90;;;;;;5063383;28;20194;-69
2021/04/20 05:44:15;;;;;;;3.53;3.33;;;7.90;99.90;;;;;;5059750;28;20223;-69
2021/04/20 05:46:46;;;;;;;4.10;3.80;;;7.90;99.90;;;;;;5063161;28;20197;-69
2021/04/20 05:49:13;;;;;;;4.10;3.80;;;7.90;99.90;;;;;;5061808;28;20202;-69
2021/04/20 05:51:40;;;;;;;3.70;3.47;;;8.00;99.90;;;;;;5065781;28;20191;-70
2021/04/20 05:54:08;;;;;;;3.70;3.50;;;8.10;99.90;;;;;;5061163;28;20673;-71
2021/04/20 05:56:34;;;;;;;4.22;3.92;;;8.10;99.90;;;;;;5062039;28;20237;-70
2021/04/20 05:59:04;;;;;;;3.63;3.42;;;8.20;99.90;;;;;;5060984;28;20232;-69
2021/04/20 06:01:34;;;;;;;3.45;3.25;;;8.30;99.90;;;;;;5061183;28;20293;-69
2021/04/20 06:04:03;;;;;;;4.25;3.95;;;8.40;99.90;;;;;;5058824;28;20660;-69
2021/04/20 06:06:30;;;;;;;4.50;4.10;;;8.50;99.90;;;;;;5063289;28;20692;-70
2021/04/20 06:08:57;;;;;;;4.20;3.90;;;8.60;99.90;;;;;;5059751;28;20229;-71
2021/04/20 06:11:24;;;;;;;4.03;3.72;;;8.70;99.90;;;;;;5056340;28;20669;-71
2021/04/20 06:13:53;;;;;;;3.38;3.17;;;8.80;99.90;;;;;;5056984;28;20197;-70
2021/04/20 06:16:21;;;;;;;4.13;3.83;;;8.80;99.90;;;;;;5055172;28;20366;-70
2021/04/20 06:18:48;;;;;;;4.10;3.80;;;8.70;99.90;;;;;;5060650;28;20202;-69
2021/04/20 06:21:17;;;;;;;4.10;3.78;;;8.50;99.90;;;;;;5056468;28;20229;-73
2021/04/20 06:23:45;;;;;;;3.90;3.60;;;8.40;99.90;;;;;;5061519;28;20198;-72
2021/04/20 06:26:13;;;;;;;3.92;3.63;;;8.50;99.90;;;;;;5083742;28;20241;-71
2021/04/20 06:28:40;;;;;;;3.85;3.65;;;8.50;99.90;;;;;;5090095;28;20703;-69
2021/04/20 06:31:08;;;;;;;3.63;3.35;;;8.60;99.90;;;;;;5081560;28;20217;-71
2021/04/20 06:33:37;;;;;;;3.33;3.10;;;8.80;99.90;;;;;;5082541;28;20211;-70
2021/04/20 06:36:07;;;;;;;3.72;3.53;;;8.90;99.90;;;;;;5086302;28;20221;-70
2021/04/20 06:38:34;;;;;;;3.33;3.13;;;9.00;99.90;;;;;;5082400;28;21983;-70
2021/04/20 06:41:03;;;;;;;3.53;3.30;;;9.00;99.90;;;;;;5078649;28;20217;-70
2021/04/20 06:43:35;;;;;;;3.70;3.40;;;9.00;99.90;;;;;;5079646;28;20224;-70
2021/04/20 06:46:08;;;;;;;3.70;3.50;;;9.00;99.90;;;;;;5096588;22;20270;-76
2021/04/20 06:48:49;;;;;;;3.72;3.42;;;9.10;99.90;;;;;;5077408;28;20650;-75
2021/04/20 06:51:19;;;;;;;4.20;3.80;;;9.40;99.90;;;;;;5095564;28;20755;-75
2021/04/20 06:53:50;;;;;;;4.13;3.83;;;9.60;99.90;;;;;;5100574;28;20366;-75
2021/04/20 06:56:29;;;;;;;4.28;3.97;;;9.70;99.90;;;;;;5096766;28;20216;-75
2021/04/20 06:59:07;;;;;;;3.72;3.53;;;9.60;99.90;;;;;;5096861;28;20213;-75
2021/04/20 07:01:38;;;;;;;6.55;4.50;;;9.60;99.90;;;;;;5099045;28;20235;-74
2021/04/20 07:04:13;;;;;;;4.20;3.90;;;9.60;99.90;;;;;;5105332;28;21010;-76
2021/04/20 07:06:52;;;;;;;4.03;3.72;;;9.80;99.90;;;;;;5102371;28;20232;-75
2021/04/20 07:09:23;;;;;;;4.35;3.95;;;10.10;99.90;;;;;;5098504;28;20513;-74
2021/04/20 07:11:51;;;;;;;4.03;3.72;;;10.20;99.90;;;;;;5107689;28;20296;-75
2021/04/20 07:14:32;;;;;;;4.55;4.07;;;10.30;99.90;;;;;;5097671;28;20205;-74
2021/04/20 07:17:25;;;;;;;3.88;3.47;;;10.40;99.90;;;;;;5104238;28;20216;-76
2021/04/20 07:20:16;;;;;;;12.88;3.85;;;10.60;99.90;;;;;;5098058;28;20224;-75
2021/04/20 07:23:35;;;;;;;4.22;3.92;;;11.00;99.90;;;;;;5101081;28;20250;-76
2021/04/20 07:26:26;;;;;;;4.57;4.10;;;11.40;99.90;;;;;;5002199;28;21017;-76
2021/04/20 07:29:07;;;;;;;4.15;3.85;;;11.40;99.90;;;;;;5078000;28;20229;-76
2021/04/20 07:31:45;;;;;;;3.65;3.35;;;11.30;99.90;;;;;;5086790;28;20221;-75
2021/04/20 07:34:21;;;;;;;4.00;3.70;;;11.60;99.90;;;;;;5091013;28;20220;-75
2021/04/20 07:37:05;;;;;;;4.00;3.65;;;11.80;99.90;;;;;;5089500;28;20228;-77
2021/04/20 07:39:39;;;;;;;3.75;3.45;;;12.00;99.90;;;;;;5104824;28;20197;-76
2021/04/20 07:42:19;;;;;;;4.13;3.80;;;12.20;99.90;;;;;;5104453;28;20206;-76
2021/04/20 07:44:55;;;;;;;4.07;3.78;;;12.40;99.90;;;;;;5099411;28;20229;-76
2021/04/20 07:47:25;;;;;;;4.30;4.00;;;12.60;99.90;;;;;;5102428;28;20224;-73
2021/04/20 07:49:59;;;;;;;5.07;3.33;;;12.90;99.90;;;;;;5097963;28;20226;-77
2021/04/20 07:52:32;;;;;;;4.22;3.58;;;13.20;99.90;;;;;;5097762;28;20712;-76
2021/04/20 07:55:11;;;;;;;3.75;3.30;;;13.20;99.90;;;;;;5098931;27;20224;-76
2021/04/20 07:57:42;;;;;;;3.70;3.40;;;13.10;99.90;;;;;;5099929;28;20784;-76
2021/04/20 08:00:13;;;;;;;3.90;3.50;;;12.90;99.90;;;;;;5097713;28;20244;-77
2021/04/20 08:02:46;;;;;;;4.47;4.07;;;13.00;99.90;;;;;;5099507;28;20539;-76
2021/04/20 08:05:19;;;;;;;3.83;3.53;;;12.70;99.90;;;;;;5093214;28;20220;-77
2021/04/20 08:07:55;;;;;;;3.78;3.47;;;12.50;99.90;;;;;;5096645;28;20225;-74
2021/04/20 08:10:26;;;;;;;3.92;3.63;;;12.60;99.90;;;;;;5102976;28;20225;-76
2021/04/20 08:12:59;;;;;;;3.80;3.50;;;12.80;99.90;;;;;;5096782;28;20197;-76
2021/04/20 08:15:36;;;;;;;4.20;3.88;;;13.10;99.90;;;;;;5101952;27;20224;-76
2021/04/20 08:18:08;;;;;;;4.53;4.22;;;13.60;99.90;;;;;;5098464;28;20465;-77
2021/04/20 08:20:38;;;;;;;4.20;3.90;;;14.10;99.90;;;;;;5098511;28;20220;-76
2021/04/20 08:23:10;;;;;;;4.20;3.80;;;14.50;99.90;;;;;;5101000;28;20210;-77
2021/04/20 08:25:41;;;;;;;4.53;3.30;;;14.70;99.90;;;;;;5102384;27;20227;-76
2021/04/20 08:28:15;;;;;;;6.03;3.38;;;14.80;99.90;;;;;;5099106;28;20278;-75
2021/04/20 08:30:47;;;;;;;3.83;3.53;;;15.00;99.90;;;;;;5099643;28;20248;-76
2021/04/20 08:33:17;;;;;;;3.15;2.95;;;15.00;99.90;;;;;;5101824;28;20227;-77
2021/04/20 08:35:44;;;;;;;3.20;2.90;;;15.20;99.90;;;;;;5101546;28;20266;-74
2021/04/20 08:38:36;;;;;;;3.20;3.00;;;15.30;99.90;;;;;;5103636;28;20203;-76
2021/04/20 08:41:08;;;;;;;3.58;3.28;;;15.60;99.90;;;;;;5100094;27;20220;-74
2021/04/20 08:43:44;;;;;;;3.30;3.10;;;16.00;99.90;;;;;;5105661;28;20292;-77
2021/04/20 08:46:23;;;;;;;3.33;3.13;;;16.50;99.90;;;;;;5102793;28;20583;-76
2021/04/20 08:48:56;;;;;;;3.10;2.90;;;16.70;99.90;;;;;;5097816;28;20224;-76
2021/04/20 08:51:31;;;;;;;3.42;3.00;;;17.00;99.90;;;;;;5099818;28;20217;-77
2021/04/20 08:54:12;;;;;;;3.65;3.08;;;17.00;99.90;;;;;;5099397;28;20200;-74
2021/04/20 08:56:45;;;;;;;3.42;2.30;;;16.90;99.90;;;;;;5105274;28;20220;-77
2021/04/20 08:59:38;;;;;;;2.17;2.08;;;16.90;99.30;;;;;;5100170;28;20827;-77
2021/04/20 09:02:21;;;;;;;2.38;2.25;;;16.90;98.70;;;;;;5083406;28;20218;-75
2021/04/20 09:05:13;;;;;;;2.30;2.20;;;16.90;99.20;;;;;;5083737;28;20197;-77
2021/04/20 09:07:54;;;;;;;2.85;2.65;;;16.60;97.20;;;;;;5076959;28;20834;-76
2021/04/20 09:10:27;;;;;;;2.88;2.67;;;16.50;98.20;;;;;;5088395;28;20228;-77
2021/04/20 09:13:00;;;;;;;4.43;2.88;;;16.40;97.70;;;;;;5096099;28;20197;-76
2021/04/20 09:15:32;;;;;;;2.80;2.60;;;16.40;97.70;;;;;;5100176;28;20232;-77
2021/04/20 09:18:04;;;;;;;2.80;2.60;;;16.50;97.70;;;;;;5103233;27;20185;-76
2021/04/20 09:20:38;;;;;;;2.83;2.60;;;16.70;97.90;;;;;;5102051;27;20217;-77
2021/04/20 09:23:15;;;;;;;2.75;2.50;;;16.80;97.70;;;;;;5098924;27;20604;-76
2021/04/20 09:25:51;;;;;;;2.58;2.38;;;17.00;96.30;;;;;;5099235;28;20216;-75
2021/04/20 09:28:23;;;;;;;2.38;2.28;;;17.10;97.10;;;;;;5096517;28;20311;-75
2021/04/20 09:30:53;;;;;;;4.15;2.30;;;17.10;96.00;;;;;;5102067;27;20229;-75
2021/04/20 09:33:22;;;;;;;2.25;2.10;;;17.10;95.00;;;;;;5099142;28;20571;-77
2021/04/20 09:35:50;;;;;;;2.17;2.08;;;17.10;94.80;;;;;;5093987;28;20259;-75
2021/04/20 09:38:19;;;;;;;2.30;2.00;;;16.70;94.10;;;;;;5097870;28;20197;-77
2021/04/20 09:40:49;;;;;;;2.22;2.13;;;16.80;94.40;;;;;;5098654;27;20254;-76
2021/04/20 09:43:29;;;;;;;2.08;1.95;;;17.10;94.10;;;;;;5100232;28;20197;-77
2021/04/20 09:46:02;;;;;;;2.08;1.98;;;17.20;91.90;;;;;;5095620;28;20276;-76
2021/04/20 09:48:38;;;;;;;3.30;1.88;;;17.30;92.90;;;;;;5094156;28;20312;-77
2021/04/20 09:51:12;;;;;;;2.20;2.10;;;17.60;92.20;;;;;;5095622;27;20239;-77
2021/04/20 09:53:57;;;;;;;2.10;2.00;;;17.60;92.80;;;;;;5099400;28;20193;-78
2021/04/20 09:56:33;;;;;;;2.30;2.20;;;17.80;93.50;;;;;;5092920;28;20236;-76
2021/04/20 09:59:03;;;;;;;2.10;1.90;;;18.00;92.20;;;;;;5098843;28;20196;-75
2021/04/20 10:01:45;;;;;;;2.00;1.90;;;18.20;92.50;;;;;;5092023;27;20217;-76
2021/04/20 10:04:17;;;;;;;2.10;2.00;;;18.20;92.50;;;;;;5094361;28;20197;-75
2021/04/20 10:07:10;;;;;;;1.98;1.88;;;18.20;92.30;;;;;;5097151;28;20236;-77
2021/04/20 10:09:45;;;;;;;2.03;1.92;;;17.80;92.00;;;;;;5096616;28;21201;-76
2021/04/20 10:12:33;;;;;;;2.13;2.03;;;17.80;92.40;;;;;;5093339;28;20467;-76
2021/04/20 10:15:15;;;;;;;2.45;2.25;;;18.10;92.20;;;;;;5095965;28;20636;-75
2021/04/20 10:17:57;;;;;;;2.17;2.08;;;18.10;90.50;;;;;;5096579;28;20246;-75
2021/04/20 10:20:34;;;;;;;2.10;2.00;;;18.30;91.10;;;;;;5093496;28;20611;-76
2021/04/20 10:23:09;;;;;;;2.35;2.15;;;18.70;91.90;;;;;;5094002;27;21720;-77
2021/04/20 10:25:44;;;;;;;2.55;2.35;;;19.10;89.80;;;;;;5096744;27;20217;-76
2021/04/20 10:28:19;;;;;;;2.08;1.98;;;19.10;90.00;;;;;;5091907;28;20226;-75
2021/04/20 10:30:51;;;;;;;2.25;2.05;;;18.90;88.10;;;;;;5094596;28;20228;-76
2021/04/20 10:33:22;;;;;;;2.20;2.05;;;18.80;88.40;;;;;;5094963;28;20670;-76
2021/04/20 10:35:53;;;;;;;2.35;2.15;;;18.70;88.50;;;;;;5094646;28;20621;-77
2021/04/20 10:38:27;;;;;;;1.90;1.80;;;18.80;90.00;;;;;;5097233;27;20441;-76
2021/04/20 10:40:54;;;;;;;1.95;1.85;;;19.00;88.50;;;;;;5099253;28;20761;-76
2021/04/20 10:43:24;;;;;;;2.08;1.98;;;19.30;89.80;;;;;;5102568;28;20419;-73
2021/04/20 10:45:53;;;;;;;2.15;2.03;;;19.30;88.40;;;;;;5096332;28;20247;-76
2021/04/20 10:48:23;;;;;;;2.40;2.20;;;19.60;90.00;;;;;;5101061;28;20654;-76
2021/04/20 10:50:52;;;;;;;2.40;1.77;;;20.00;88.40;;;;;;5098822;27;20228;-77
2021/04/20 10:53:21;;;;;;;2.05;1.90;;;20.10;87.50;;;;;;5096139;28;20205;-76
2021/04/20 10:55:50;;;;;;;2.58;1.85;;;20.00;84.70;;;;;;5095419;28;20240;-76
2021/04/20 10:58:23;;;;;;;2.10;1.50;;;19.90;85.60;;;;;;5092645;28;20263;-76
2021/04/20 11:00:51;;;;;;;1.52;1.42;;;19.70;85.50;;;;;;5100639;27;20224;-76
2021/04/20 11:03:23;;;;;;;1.50;1.40;;;19.80;83.20;;;;;;5097437;28;20201;-77
2021/04/20 11:05:50;;;;;;;1.58;1.40;;;19.90;81.90;;;;;;5096719;28;20225;-77
2021/04/20 11:08:23;;;;;;;1.50;1.40;;;20.00;81.80;;;;;;5095925;28;20227;-76
2021/04/20 11:10:50;;;;;;;1.63;1.52;;;20.10;79.10;;;;;;5099414;28;20213;-76
2021/04/20 11:13:33;;;;;;;1.52;1.42;;;20.40;81.20;;;;;;5101657;28;20253;-78
2021/04/20 11:16:01;;;;;;;1.60;1.50;;;20.70;82.90;;;;;;5093005;28;20571;-75
2021/04/20 11:18:33;;;;;;;1.40;1.30;;;20.90;83.30;;;;;;5097538;28;20197;-77
2021/04/20 11:21:02;;;;;;;1.40;1.33;;;20.90;79.70;;;;;;5095154;28;20209;-77
2021/04/20 11:23:32;;;;;;;1.60;1.50;;;20.80;78.90;;;;;;5093276;28;20585;-77
2021/04/20 11:26:09;;;;;;;1.50;1.40;;;20.90;80.40;;;;;;5093447;28;20723;-77
2021/04/20 11:28:46;;;;;;;1.50;1.40;;;20.90;78.00;;;;;;5092741;28;20575;-75
2021/04/20 11:31:25;;;;;;;1.58;1.40;;;20.80;77.70;;;;;;5093655;28;20243;-77
2021/04/20 11:33:55;;;;;;;1.10;1.10;;;21.00;78.10;;;;;;5100864;28;20188;-76
2021/04/20 11:36:28;;;;;;;1.30;1.20;;;21.00;74.80;;;;;;5102212;28;20274;-78
2021/04/20 11:38:58;;;;;;;1.40;1.30;;;20.80;74.30;;;;;;5097692;28;20664;-76
2021/04/20 11:41:29;;;;;;;1.40;1.30;;;20.40;75.40;;;;;;5100447;28;20219;-75
2021/04/20 11:43:59;;;;;;;1.20;1.20;;;20.40;77.80;;;;;;5097226;28;20193;-77
2021/04/20 11:46:28;;;;;;;2.22;1.27;;;20.40;76.20;;;;;;5093299;28;20259;-76
2021/04/20 11:49:07;;;;;;;1.40;1.30;;;20.40;74.80;;;;;;5097333;27;20223;-77
2021/04/20 11:51:35;;;;;;;1.38;1.27;;;20.30;75.20;;;;;;5096505;27;21110;-77
2021/04/20 11:54:03;;;;;;;2.22;1.52;;;20.20;74.10;;;;;;5097346;27;20204;-76
2021/04/20 11:56:36;;;;;;;1.30;1.20;;;20.20;74.30;;;;;;5093756;28;20224;-77
2021/04/20 11:59:03;;;;;;;1.13;1.13;;;20.40;72.60;;;;;;5104069;27;20651;-76
2021/04/20 12:01:33;;;;;;;0.93;0.93;;;20.40;72.90;;;;;;5092391;28;20236;-75
2021/04/20 12:04:02;;;;;;;1.30;1.20;;;20.40;73.20;;;;;;5093734;28;22028;-77
2021/04/20 12:06:40;;;;;;;1.00;1.00;;;20.50;72.90;;;;;;5096631;28;20224;-77
2021/04/20 12:09:08;;;;;;;1.15;1.10;;;20.50;72.00;;;;;;5095727;28;20668;-76
2021/04/20 12:11:35;;;;;;;1.27;1.20;;;20.50;75.50;;;;;;5095741;28;20269;-77
2021/04/20 12:14:03;;;;;;;1.30;1.20;;;20.80;77.30;;;;;;5092092;27;20275;-76
2021/04/20 12:16:34;;;;;;;1.10;1.10;;;21.10;74.20;;;;;;5099543;28;20225;-77
2021/04/20 12:19:05;;;;;;;1.10;1.10;;;21.30;73.90;;;;;;5095147;27;20200;-76
2021/04/20 12:21:36;;;;;;;1.00;1.00;;;21.10;72.60;;;;;;5096151;28;20302;-77
2021/04/20 12:24:03;;;;;;;1.15;1.10;;;20.60;71.80;;;;;;5095667;28;20219;-76
2021/04/20 12:26:32;;;;;;;1.30;1.20;;;20.10;73.10;;;;;;5095064;27;20231;-77
2021/04/20 12:29:02;;;;;;;1.05;1.05;;;19.80;73.20;;;;;;5101779;27;20215;-77
2021/04/20 12:31:29;;;;;;;1.00;1.00;;;19.50;74.80;;;;;;5098001;28;20216;-76
2021/04/20 12:33:57;;;;;;;1.10;1.10;;;19.80;74.60;;;;;;5097102;28;20205;-76
2021/04/20 12:36:29;;;;;;;1.50;1.30;;;19.90;76.10;;;;;;5100441;28;20710;-77
2021/04/20 12:38:58;;;;;;;1.17;1.10;;;19.60;73.90;;;;;;5099245;27;20761;-77
2021/04/20 12:41:28;;;;;;;1.63;1.13;;;19.40;75.30;;;;;;5101547;27;20254;-76
2021/04/20 12:43:58;;;;;;;1.17;1.10;;;19.60;76.60;;;;;;5097075;27;20243;-77
2021/04/20 12:46:26;;;;;;;1.17;1.17;;;19.90;75.70;;;;;;5112127;22;20217;-69
2021/04/20 12:48:56;;;;;;;1.08;1.08;;;20.10;74.80;;;;;;5083085;28;20220;-69
2021/04/20 12:51:25;;;;;;;1.63;1.52;;;20.50;75.40;;;;;;5091488;28;20741;-69
2021/04/20 12:53:54;;;;;;;1.30;1.20;;;20.50;71.70;;;;;;5088254;28;20198;-69
2021/04/20 12:56:24;;;;;;;1.35;1.25;;;20.30;72.50;;;;;;5080642;28;20225;-69
2021/04/20 12:58:52;;;;;;;2.20;1.23;;;20.40;70.20;;;;;;5078608;28;20189;-70
2021/04/20 13:01:22;;;;;;;1.38;1.27;;;20.60;71.70;;;;;;5087245;28;20261;-69
2021/04/20 13:03:50;;;;;;;1.45;1.35;;;20.60;70.30;;;;;;5082630;28;20255;-69
2021/04/20 13:06:19;;;;;;;1.40;1.30;;;20.90;71.60;;;;;;5076420;28;20473;-69
2021/04/20 13:08:48;;;;;;;1.25;1.15;;;21.00;71.00;;;;;;5062348;28;20704;-70
2021/04/20 13:11:24;;;;;;;1.55;1.50;;;20.60;68.20;;;;;;5058463;28;20218;-69
2021/04/20 13:13:53;;;;;;;1.40;1.30;;;20.00;67.30;;;;;;5060999;28;20200;-69
2021/04/20 13:16:24;;;;;;;1.25;1.25;;;19.70;70.70;;;;;;5063548;28;20226;-69
2021/04/20 13:18:56;;;;;;;1.35;1.30;;;19.60;68.60;;;;;;5060205;28;20903;-69
2021/04/20 13:21:25;;;;;;;1.23;1.20;;;19.70;70.00;;;;;;5059858;28;20214;-69
2021/04/20 13:23:54;;;;;;;1.25;1.20;;;20.10;69.50;;;;;;5063125;28;20205;-69
2021/04/20 13:26:23;;;;;;;1.52;1.42;;;20.00;69.60;;;;;;5058810;28;20226;-69
2021/04/20 13:28:52;;;;;;;1.48;1.38;;;19.70;69.60;;;;;;5060056;28;20282;-69
2021/04/20 13:31:22;;;;;;;1.30;1.20;;;19.60;71.90;;;;;;5054658;28;20309;-69
2021/04/20 13:33:50;;;;;;;1.40;1.30;;;19.40;70.30;;;;;;5061046;28;20569;-69
2021/04/20 13:36:18;;;;;;;1.27;1.20;;;19.20;71.20;;;;;;5059325;28;20253;-69
2021/04/20 13:38:58;;;;;;;1.33;1.25;;;19.10;72.90;;;;;;5061048;28;20198;-69
2021/04/20 13:41:27;;;;;;;1.40;1.30;;;18.90;72.40;;;;;;5057927;28;20279;-69
2021/04/20 13:43:55;;;;;;;1.42;1.33;;;18.80;73.20;;;;;;5058613;28;20202;-69
2021/04/20 13:46:22;;;;;;;1.27;1.25;;;18.70;73.60;;;;;;5058009;28;20226;-69
2021/04/20 13:48:50;;;;;;;1.83;1.17;;;18.50;73.20;;;;;;5060387;28;20267;-69
2021/04/20 13:51:27;;;;;;;1.10;1.10;;;18.40;75.00;;;;;;5057308;28;20217;-69
2021/04/20 13:53:56;;;;;;;1.08;1.08;;;18.30;74.10;;;;;;5061912;28;20193;-69
2021/04/20 13:56:25;;;;;;;1.40;1.30;;;18.30;73.50;;;;;;5057149;28;20408;-69
2021/04/20 13:58:55;;;;;;;1.08;1.08;;;18.20;73.70;;;;;;5056602;28;20263;-69
2021/04/20 14:01:25;;;;;;;1.20;1.10;;;18.30;74.10;;;;;;5057294;28;20221;-69
2021/04/20 14:03:58;;;;;;;1.40;1.30;;;18.30;73.70;;;;;;5066264;28;20213;-69
2021/04/20 14:06:27;;;;;;;1.17;1.10;;;18.40;74.40;;;;;;5056170;28;20282;-69
2021/04/20 14:09:01;;;;;;;1.55;1.45;;;18.40;74.20;;;;;;5062930;28;20224;-70
2021/04/20 14:11:43;;;;;;;1.23;1.13;;;18.40;73.90;;;;;;5058015;28;20298;-69
2021/04/20 14:14:11;;;;;;;1.20;1.20;;;18.50;74.50;;;;;;5064570;28;20209;-69
2021/04/20 14:16:41;;;;;;;1.23;1.23;;;18.50;74.50;;;;;;5059346;28;20480;-69
2021/04/20 14:19:08;;;;;;;1.10;1.10;;;18.60;74.90;;;;;;5057377;28;20572;-68
2021/04/20 14:21:36;;;;;;;1.30;1.20;;;18.70;75.40;;;;;;5055321;28;20222;-68
2021/04/20 14:24:05;;;;;;;1.10;1.00;;;18.80;76.20;;;;;;5057375;28;20189;-69
2021/04/20 14:26:32;;;;;;;1.15;1.15;;;18.80;76.10;;;;;;5058396;28;20222;-68
2021/04/20 14:29:08;;;;;;;1.27;1.25;;;18.90;76.90;;;;;;5057337;28;20772;-68
2021/04/20 14:31:37;;;;;;;1.40;1.30;;;19.00;77.40;;;;;;5058622;28;20226;-69
2021/04/20 14:34:06;;;;;;;1.33;1.33;;;19.20;76.40;;;;;;5058372;28;20198;-69
2021/04/20 14:36:35;;;;;;;1.70;1.60;;;19.10;73.60;;;;;;5051337;28;20594;-69
2021/04/20 14:39:11;;;;;;;1.58;1.48;;;19.00;73.00;;;;;;5059268;28;20201;-69
2021/04/20 14:41:40;;;;;;;1.10;1.10;;;19.10;72.20;;;;;;5061774;28;20570;-70
2021/04/20 14:44:18;;;;;;;1.30;1.30;;;19.20;73.60;;;;;;5060127;28;20207;-69
2021/04/20 14:46:46;;;;;;;1.30;1.30;;;19.30;71.30;;;;;;5060463;28;20229;-69
2021/04/20 14:49:20;;;;;;;1.45;1.35;;;19.30;71.10;;;;;;5061343;28;20692;-69
2021/04/20 14:51:50;;;;;;;1.25;1.15;;;19.40;72.10;;;;;;5057409;28;20213;-69
2021/04/20 14:54:23;;;;;;;1.58;1.48;;;19.30;71.60;;;;;;5052118;28;20206;-69
2021/04/20 14:56:51;;;;;;;1.75;1.65;;;18.90;70.80;;;;;;5066656;28;20214;-69
2021/04/20 14:59:21;;;;;;;1.20;1.20;;;18.80;71.90;;;;;;5083642;28;20694;-69
2021/04/20 15:01:54;;;;;;;1.30;1.20;;;18.60;71.00;;;;;;5082277;28;20220;-69